createdAt,value
2018-07-12T00:00:12.578Z,19.84
2018-07-12T00:01:12.579Z,19.86
2018-07-12T00:02:12.555Z,19.88
2018-07-12T00:03:12.545Z,19.88
2018-07-12T00:04:12.533Z,19.87
2018-07-12T00:05:12.523Z,19.86
2018-07-12T00:06:12.536Z,19.88
2018-07-12T00:07:12.505Z,19.88
2018-07-12T00:08:12.493Z,19.91
2018-07-12T00:09:12.483Z,19.87
2018-07-12T00:10:12.471Z,19.76
2018-07-12T00:11:12.460Z,19.74
2018-07-12T00:12:12.463Z,19.76
2018-07-12T00:13:12.438Z,19.81
2018-07-12T00:14:12.427Z,19.84
2018-07-12T00:15:12.417Z,19.77
2018-07-12T00:16:12.412Z,19.77
2018-07-12T00:17:12.412Z,19.78
2018-07-12T00:18:12.385Z,19.78
2018-07-12T00:19:12.373Z,19.84
2018-07-12T00:20:12.368Z,19.78
2018-07-12T00:21:12.352Z,19.74
2018-07-12T00:22:12.358Z,19.74
2018-07-12T00:23:12.331Z,19.80
2018-07-12T00:24:12.321Z,19.74
2018-07-12T00:25:12.310Z,19.71
2018-07-12T00:26:12.299Z,19.77
2018-07-12T00:27:12.313Z,19.76
2018-07-12T00:28:12.277Z,19.69
2018-07-12T00:29:12.268Z,19.74
2018-07-12T00:30:12.257Z,19.65
2018-07-12T00:31:12.247Z,19.58
2018-07-12T00:32:12.251Z,19.58
2018-07-12T00:33:12.227Z,19.63
2018-07-12T00:34:12.215Z,19.63
2018-07-12T00:35:12.205Z,19.63
2018-07-12T00:36:12.196Z,19.56
2018-07-12T00:37:12.200Z,19.66
2018-07-12T00:38:12.172Z,19.59
2018-07-12T00:39:12.164Z,19.58
2018-07-12T00:40:12.152Z,19.66
2018-07-12T00:41:12.143Z,19.56
2018-07-12T00:42:12.145Z,19.69
2018-07-12T00:43:12.120Z,19.56
2018-07-12T00:44:12.110Z,19.61
2018-07-12T00:45:12.101Z,19.69
2018-07-12T00:46:12.088Z,19.62
2018-07-12T00:47:12.091Z,19.62
2018-07-12T00:48:12.069Z,19.63
2018-07-12T00:49:12.057Z,19.68
2018-07-12T00:50:12.046Z,19.62
2018-07-12T00:51:12.035Z,19.55
2018-07-12T00:52:12.040Z,19.65
2018-07-12T00:53:12.015Z,19.61
2018-07-12T00:54:12.004Z,19.54
2018-07-12T00:55:11.993Z,19.58
2018-07-12T00:56:11.984Z,19.54
2018-07-12T00:57:12.002Z,19.51
2018-07-12T00:58:11.963Z,19.58
2018-07-12T00:59:11.953Z,19.59
2018-07-12T01:00:11.940Z,19.55
2018-07-12T01:01:11.932Z,19.59
2018-07-12T01:02:11.918Z,19.50
2018-07-12T01:03:11.922Z,19.58
2018-07-12T01:04:11.897Z,19.58
2018-07-12T01:05:11.896Z,19.62
2018-07-12T01:06:11.876Z,19.62
2018-07-12T01:07:11.866Z,19.59
2018-07-12T01:08:11.868Z,19.56
2018-07-12T01:09:11.844Z,19.56
2018-07-12T01:10:11.836Z,19.50
2018-07-12T01:11:11.826Z,19.51
2018-07-12T01:12:11.893Z,19.46
2018-07-12T01:13:11.843Z,19.41
2018-07-12T01:14:11.795Z,19.39
2018-07-12T01:15:11.781Z,19.46
2018-07-12T01:16:11.769Z,19.51
2018-07-12T01:17:11.760Z,19.48
2018-07-12T01:18:11.764Z,19.46
2018-07-12T01:19:11.738Z,19.41
2018-07-12T01:20:11.727Z,19.44
2018-07-12T01:21:11.716Z,19.51
2018-07-12T01:22:11.706Z,19.41
2018-07-12T01:23:11.711Z,19.41
2018-07-12T01:24:11.687Z,19.44
2018-07-12T01:25:11.675Z,19.39
2018-07-12T01:26:11.665Z,19.41
2018-07-12T01:27:11.652Z,19.44
2018-07-12T01:28:11.656Z,19.40
2018-07-12T01:29:11.632Z,19.41
2018-07-12T01:30:11.621Z,19.40
2018-07-12T01:31:11.611Z,19.39
2018-07-12T01:32:11.599Z,19.43
2018-07-12T01:33:11.603Z,19.40
2018-07-12T01:34:11.579Z,19.39
2018-07-12T01:35:11.567Z,19.41
2018-07-12T01:36:11.652Z,19.36
2018-07-12T01:37:11.548Z,19.33
2018-07-12T01:38:11.551Z,19.37
2018-07-12T01:39:11.525Z,19.32
2018-07-12T01:40:11.514Z,19.32
2018-07-12T01:41:11.504Z,19.36
2018-07-12T01:42:11.493Z,19.39
2018-07-12T01:43:11.496Z,19.32
2018-07-12T01:44:11.472Z,19.36
2018-07-12T01:45:11.460Z,19.32
2018-07-12T01:46:11.451Z,19.37
2018-07-12T01:47:11.442Z,19.32
2018-07-12T01:48:11.460Z,19.36
2018-07-12T01:49:11.416Z,19.37
2018-07-12T01:50:11.407Z,19.31
2018-07-12T01:51:11.396Z,19.28
2018-07-12T01:52:11.385Z,19.25
2018-07-12T01:53:11.374Z,19.37
2018-07-12T01:54:11.377Z,19.31
2018-07-12T01:55:11.352Z,19.29
2018-07-12T01:56:11.342Z,19.36
2018-07-12T01:57:11.331Z,19.32
2018-07-12T01:58:11.321Z,19.36
2018-07-12T01:59:11.323Z,19.31
2018-07-12T02:00:11.299Z,19.32
2018-07-12T02:01:11.288Z,19.23
2018-07-12T02:02:11.277Z,19.36
2018-07-12T02:03:11.266Z,19.29
2018-07-12T02:04:11.270Z,19.28
2018-07-12T02:05:11.245Z,19.32
2018-07-12T02:06:11.234Z,19.32
2018-07-12T02:07:11.223Z,19.23
2018-07-12T02:08:11.212Z,19.23
2018-07-12T02:09:11.217Z,19.25
2018-07-12T02:10:11.191Z,19.25
2018-07-12T02:11:11.180Z,19.16
2018-07-12T02:12:11.171Z,19.23
2018-07-12T02:13:11.159Z,19.21
2018-07-12T02:14:11.163Z,19.16
2018-07-12T02:15:11.142Z,19.19
2018-07-12T02:16:11.127Z,19.22
2018-07-12T02:17:11.117Z,19.19
2018-07-12T02:18:11.106Z,19.19
2018-07-12T02:19:11.109Z,19.13
2018-07-12T02:20:11.087Z,19.13
2018-07-12T02:21:11.074Z,19.14
2018-07-12T02:22:11.063Z,19.18
2018-07-12T02:23:11.052Z,19.14
2018-07-12T02:24:11.055Z,19.19
2018-07-12T02:25:11.031Z,19.16
2018-07-12T02:26:11.020Z,19.19
2018-07-12T02:27:11.016Z,19.19
2018-07-12T02:28:11.000Z,19.21
2018-07-12T02:29:10.989Z,19.19
2018-07-12T02:30:10.992Z,19.19
2018-07-12T02:31:10.970Z,19.16
2018-07-12T02:32:10.956Z,19.16
2018-07-12T02:33:10.947Z,19.14
2018-07-12T02:34:10.935Z,19.06
2018-07-12T02:35:11.010Z,19.14
2018-07-12T02:36:10.914Z,19.08
2018-07-12T02:37:10.920Z,19.06
2018-07-12T02:38:10.897Z,19.08
2018-07-12T02:39:10.889Z,19.08
2018-07-12T02:40:10.891Z,19.02
2018-07-12T02:41:10.866Z,19.02
2018-07-12T02:42:10.851Z,18.98
2018-07-12T02:43:10.838Z,18.99
2018-07-12T02:44:10.828Z,19.07
2018-07-12T02:45:10.832Z,18.99
2018-07-12T02:46:10.806Z,19.07
2018-07-12T02:47:10.796Z,19.04
2018-07-12T02:48:10.789Z,19.06
2018-07-12T02:49:10.775Z,19.08
2018-07-12T02:50:10.777Z,19.04
2018-07-12T02:51:10.752Z,19.06
2018-07-12T02:52:10.741Z,18.95
2018-07-12T02:53:10.731Z,19.02
2018-07-12T02:54:10.723Z,19.00
2018-07-12T02:55:10.724Z,18.99
2018-07-12T02:56:10.698Z,19.00
2018-07-12T02:57:10.705Z,18.94
2018-07-12T02:58:10.677Z,19.02
2018-07-12T02:59:10.666Z,19.08
2018-07-12T03:00:10.670Z,19.00
2018-07-12T03:01:10.644Z,18.98
2018-07-12T03:02:10.634Z,18.98
2018-07-12T03:03:10.623Z,19.00
2018-07-12T03:04:10.614Z,19.00
2018-07-12T03:05:10.617Z,19.00
2018-07-12T03:06:10.592Z,19.00
2018-07-12T03:07:10.581Z,18.98
2018-07-12T03:08:10.570Z,18.98
2018-07-12T03:09:10.560Z,18.95
2018-07-12T03:10:10.562Z,18.91
2018-07-12T03:11:10.537Z,18.98
2018-07-12T03:12:10.529Z,18.91
2018-07-12T03:13:10.516Z,18.95
2018-07-12T03:14:10.505Z,18.94
2018-07-12T03:15:10.509Z,18.95
2018-07-12T03:16:10.489Z,19.00
2018-07-12T03:17:10.474Z,18.99
2018-07-12T03:18:10.463Z,18.91
2018-07-12T03:19:10.454Z,18.99
2018-07-12T03:20:10.456Z,18.95
2018-07-12T03:21:10.432Z,18.95
2018-07-12T03:22:10.421Z,18.99
2018-07-12T03:23:10.409Z,18.94
2018-07-12T03:24:10.399Z,18.91
2018-07-12T03:25:10.422Z,18.92
2018-07-12T03:26:10.379Z,18.90
2018-07-12T03:27:10.367Z,18.92
2018-07-12T03:28:10.361Z,18.88
2018-07-12T03:29:10.345Z,18.90
2018-07-12T03:30:10.337Z,18.87
2018-07-12T03:31:10.336Z,18.87
2018-07-12T03:32:10.314Z,18.82
2018-07-12T03:33:10.303Z,18.80
2018-07-12T03:34:10.292Z,18.90
2018-07-12T03:35:10.282Z,18.90
2018-07-12T03:36:10.286Z,18.81
2018-07-12T03:37:10.260Z,18.76
2018-07-12T03:38:10.251Z,18.80
2018-07-12T03:39:10.239Z,18.84
2018-07-12T03:40:10.228Z,18.87
2018-07-12T03:41:10.232Z,18.84
2018-07-12T03:42:10.209Z,18.84
2018-07-12T03:43:10.195Z,18.80
2018-07-12T03:44:10.185Z,18.85
2018-07-12T03:45:10.175Z,18.80
2018-07-12T03:46:10.180Z,18.82
2018-07-12T03:47:10.153Z,18.76
2018-07-12T03:48:10.142Z,18.76
2018-07-12T03:49:10.131Z,18.82
2018-07-12T03:50:10.121Z,18.82
2018-07-12T03:51:10.161Z,18.75
2018-07-12T03:52:10.101Z,18.78
2018-07-12T03:53:10.089Z,18.75
2018-07-12T03:54:10.077Z,18.81
2018-07-12T03:55:10.071Z,18.80
2018-07-12T03:56:10.069Z,18.72
2018-07-12T03:57:10.045Z,18.80
2018-07-12T03:58:10.091Z,18.81
2018-07-12T03:59:10.024Z,18.75
2018-07-12T04:00:10.014Z,18.80
2018-07-12T04:01:10.021Z,18.81
2018-07-12T04:02:09.991Z,18.78
2018-07-12T04:03:09.981Z,18.85
2018-07-12T04:04:10.020Z,18.88
2018-07-12T04:05:09.973Z,18.84
2018-07-12T04:06:09.976Z,18.87
2018-07-12T04:07:09.939Z,18.90
2018-07-12T04:08:09.926Z,18.91
2018-07-12T04:09:09.920Z,18.92
2018-07-12T04:10:09.909Z,18.95
2018-07-12T04:11:09.911Z,18.98
2018-07-12T04:12:09.883Z,18.94
2018-07-12T04:13:09.872Z,19.02
2018-07-12T04:14:09.861Z,19.04
2018-07-12T04:15:09.851Z,19.00
2018-07-12T04:16:09.861Z,19.08
2018-07-12T04:17:09.829Z,19.04
2018-07-12T04:18:09.822Z,19.06
2018-07-12T04:19:09.809Z,19.08
2018-07-12T04:20:09.797Z,19.07
2018-07-12T04:21:09.800Z,19.13
2018-07-12T04:22:09.776Z,19.19
2018-07-12T04:23:09.765Z,19.14
2018-07-12T04:24:09.755Z,19.16
2018-07-12T04:25:09.744Z,19.21
2018-07-12T04:26:09.753Z,19.19
2018-07-12T04:27:09.722Z,19.22
2018-07-12T04:28:09.711Z,19.19
2018-07-12T04:29:09.702Z,19.21
2018-07-12T04:30:09.691Z,19.21
2018-07-12T04:31:09.679Z,19.22
2018-07-12T04:32:09.685Z,19.28
2018-07-12T04:33:09.659Z,19.21
2018-07-12T04:34:09.656Z,19.25
2018-07-12T04:35:09.638Z,19.26
2018-07-12T04:36:09.628Z,19.31
2018-07-12T04:37:09.630Z,19.28
2018-07-12T04:38:09.605Z,19.31
2018-07-12T04:39:09.594Z,19.29
2018-07-12T04:40:09.583Z,19.33
2018-07-12T04:41:09.573Z,19.32
2018-07-12T04:42:09.576Z,19.37
2018-07-12T04:43:09.551Z,19.36
2018-07-12T04:44:09.540Z,19.26
2018-07-12T04:45:09.530Z,19.33
2018-07-12T04:46:09.520Z,19.36
2018-07-12T04:47:09.528Z,19.36
2018-07-12T04:48:09.498Z,19.41
2018-07-12T04:49:09.488Z,19.43
2018-07-12T04:50:09.480Z,19.39
2018-07-12T04:51:09.471Z,19.40
2018-07-12T04:52:09.470Z,19.37
2018-07-12T04:53:09.445Z,19.46
2018-07-12T04:54:09.437Z,19.36
2018-07-12T04:55:09.424Z,19.40
2018-07-12T04:56:09.416Z,19.40
2018-07-12T04:57:09.417Z,19.46
2018-07-12T04:58:09.438Z,19.44
2018-07-12T04:59:09.380Z,19.44
2018-07-12T05:00:09.372Z,19.50
2018-07-12T05:01:09.362Z,19.54
2018-07-12T05:02:09.365Z,19.55
2018-07-12T05:03:09.338Z,19.51
2018-07-12T05:04:09.327Z,19.50
2018-07-12T05:05:09.316Z,19.59
2018-07-12T05:06:09.307Z,19.58
2018-07-12T05:07:09.311Z,19.59
2018-07-12T05:08:09.288Z,19.55
2018-07-12T05:09:09.321Z,19.61
2018-07-12T05:10:09.263Z,19.58
2018-07-12T05:11:09.253Z,19.65
2018-07-12T05:12:09.270Z,19.61
2018-07-12T05:13:09.233Z,19.61
2018-07-12T05:14:09.220Z,19.62
2018-07-12T05:15:09.211Z,19.68
2018-07-12T05:16:09.239Z,19.65
2018-07-12T05:17:09.189Z,19.71
2018-07-12T05:18:09.197Z,19.69
2018-07-12T05:19:09.168Z,19.65
2018-07-12T05:20:09.157Z,19.71
2018-07-12T05:21:09.147Z,19.66
2018-07-12T05:22:09.137Z,19.74
2018-07-12T05:23:09.142Z,19.69
2018-07-12T05:24:09.114Z,19.77
2018-07-12T05:25:09.104Z,19.73
2018-07-12T05:26:09.094Z,19.80
2018-07-12T05:27:09.084Z,19.80
2018-07-12T05:28:09.085Z,19.74
2018-07-12T05:29:09.062Z,19.76
2018-07-12T05:30:09.051Z,19.74
2018-07-12T05:31:09.045Z,19.87
2018-07-12T05:32:09.034Z,19.80
2018-07-12T05:33:09.039Z,19.76
2018-07-12T05:34:09.017Z,19.78
2018-07-12T05:35:09.021Z,19.78
2018-07-12T05:36:08.987Z,19.83
2018-07-12T05:37:08.976Z,19.88
2018-07-12T05:38:08.980Z,19.92
2018-07-12T05:39:08.958Z,19.92
2018-07-12T05:40:08.944Z,19.98
2018-07-12T05:41:08.933Z,19.86
2018-07-12T05:42:08.924Z,19.98
2018-07-12T05:43:08.927Z,19.99
2018-07-12T05:44:08.903Z,20.16
2018-07-12T05:45:08.891Z,20.24
2018-07-12T05:46:08.881Z,20.42
2018-07-12T05:47:08.872Z,20.64
2018-07-12T05:48:08.884Z,20.72
2018-07-12T05:49:08.849Z,20.89
2018-07-12T05:50:08.838Z,20.95
2018-07-12T05:51:08.826Z,21.10
2018-07-12T05:52:08.816Z,21.21
2018-07-12T05:53:08.820Z,21.37
2018-07-12T05:54:08.794Z,21.47
2018-07-12T05:55:08.783Z,21.56
2018-07-12T05:56:08.773Z,21.56
2018-07-12T05:57:08.763Z,21.62
2018-07-12T05:58:08.779Z,21.68
2018-07-12T05:59:08.746Z,21.72
2018-07-12T06:00:08.729Z,21.75
2018-07-12T06:01:08.718Z,21.75
2018-07-12T06:02:08.708Z,21.75
2018-07-12T06:03:08.696Z,21.71
2018-07-12T06:04:08.702Z,21.72
2018-07-12T06:05:08.675Z,21.72
2018-07-12T06:06:08.666Z,21.65
2018-07-12T06:07:08.655Z,21.69
2018-07-12T06:08:08.643Z,21.72
2018-07-12T06:09:08.649Z,21.72
2018-07-12T06:10:08.623Z,21.69
2018-07-12T06:11:08.611Z,21.75
2018-07-12T06:12:08.600Z,21.67
2018-07-12T06:13:08.600Z,21.72
2018-07-12T06:14:08.592Z,21.80
2018-07-12T06:15:08.567Z,21.77
2018-07-12T06:16:08.594Z,21.74
2018-07-12T06:17:08.547Z,21.75
2018-07-12T06:18:08.537Z,21.86
2018-07-12T06:19:08.541Z,21.83
2018-07-12T06:20:08.518Z,21.88
2018-07-12T06:21:08.504Z,21.92
2018-07-12T06:22:08.494Z,21.91
2018-07-12T06:23:08.483Z,21.96
2018-07-12T06:24:08.486Z,21.91
2018-07-12T06:25:08.462Z,21.96
2018-07-12T06:26:08.451Z,21.98
2018-07-12T06:27:08.440Z,22.03
2018-07-12T06:28:08.430Z,21.99
2018-07-12T06:29:08.433Z,22.09
2018-07-12T06:30:08.408Z,22.06
2018-07-12T06:31:08.397Z,22.05
2018-07-12T06:32:08.385Z,22.07
2018-07-12T06:33:08.375Z,22.06
2018-07-12T06:34:08.380Z,22.15
2018-07-12T06:35:08.362Z,22.15
2018-07-12T06:36:08.343Z,22.10
2018-07-12T06:37:08.377Z,22.15
2018-07-12T06:38:08.320Z,22.20
2018-07-12T06:39:08.323Z,22.21
2018-07-12T06:40:08.302Z,22.10
2018-07-12T06:41:08.289Z,22.22
2018-07-12T06:42:08.277Z,22.21
2018-07-12T06:43:08.267Z,22.25
2018-07-12T06:44:08.271Z,22.28
2018-07-12T06:45:08.246Z,22.25
2018-07-12T06:46:08.236Z,22.24
2018-07-12T06:47:08.227Z,22.24
2018-07-12T06:48:08.217Z,22.28
2018-07-12T06:49:08.231Z,22.22
2018-07-12T06:50:08.194Z,22.28
2018-07-12T06:51:08.182Z,22.35
2018-07-12T06:52:08.171Z,22.31
2018-07-12T06:53:08.160Z,22.43
2018-07-12T06:54:08.148Z,22.37
2018-07-12T06:55:08.153Z,22.35
2018-07-12T06:56:08.127Z,22.31
2018-07-12T06:57:08.116Z,22.39
2018-07-12T06:58:23.026Z,22.43
2018-07-12T06:59:08.096Z,22.45
2018-07-12T07:00:08.104Z,22.39
2018-07-12T07:01:08.086Z,22.43
2018-07-12T07:02:08.078Z,22.43
2018-07-12T07:03:08.057Z,22.51
2018-07-12T07:04:08.063Z,22.45
2018-07-12T07:05:08.045Z,22.49
2018-07-12T07:06:08.021Z,22.42
2018-07-12T07:07:08.011Z,22.45
2018-07-12T07:08:08.000Z,22.54
2018-07-12T07:09:07.994Z,22.45
2018-07-12T07:10:07.991Z,22.54
2018-07-12T07:11:07.967Z,22.49
2018-07-12T07:12:07.959Z,22.57
2018-07-12T07:13:07.946Z,22.49
2018-07-12T07:14:07.940Z,22.61
2018-07-12T07:15:07.940Z,22.54
2018-07-12T07:16:07.917Z,22.49
2018-07-12T07:17:07.905Z,22.58
2018-07-12T07:18:07.893Z,22.61
2018-07-12T07:19:07.883Z,22.61
2018-07-12T07:20:07.893Z,22.54
2018-07-12T07:21:07.861Z,22.60
2018-07-12T07:22:07.851Z,22.57
2018-07-12T07:23:07.841Z,22.64
2018-07-12T07:24:07.831Z,22.64
2018-07-12T07:25:07.834Z,22.64
2018-07-12T07:26:07.837Z,22.65
2018-07-12T07:27:07.799Z,22.65
2018-07-12T07:28:07.788Z,22.68
2018-07-12T07:29:07.778Z,22.75
2018-07-12T07:30:07.780Z,22.76
2018-07-12T07:31:07.757Z,22.75
2018-07-12T07:32:07.747Z,22.73
2018-07-12T07:33:07.735Z,22.72
2018-07-12T07:34:07.725Z,22.75
2018-07-12T07:35:07.741Z,22.76
2018-07-12T07:36:07.703Z,22.79
2018-07-12T07:37:07.692Z,22.68
2018-07-12T07:38:07.682Z,22.77
2018-07-12T07:39:07.674Z,22.76
2018-07-12T07:40:07.660Z,22.82
2018-07-12T07:41:07.669Z,22.80
2018-07-12T07:42:07.641Z,22.79
2018-07-12T07:43:07.765Z,22.82
2018-07-12T07:44:07.621Z,22.86
2018-07-12T07:45:07.609Z,22.76
2018-07-12T07:46:07.611Z,22.86
2018-07-12T07:47:07.588Z,22.82
2018-07-12T07:48:07.576Z,22.85
2018-07-12T07:49:07.571Z,22.80
2018-07-12T07:50:07.555Z,22.82
2018-07-12T07:51:07.560Z,22.91
2018-07-12T07:52:07.534Z,22.88
2018-07-12T07:53:07.525Z,22.88
2018-07-12T07:54:07.513Z,22.88
2018-07-12T07:55:07.501Z,22.80
2018-07-12T07:56:07.505Z,22.97
2018-07-12T07:57:07.483Z,22.95
2018-07-12T07:58:07.469Z,22.92
2018-07-12T07:59:07.458Z,22.94
2018-07-12T08:00:07.449Z,22.92
2018-07-12T08:01:07.451Z,22.86
2018-07-12T08:02:07.428Z,22.95
2018-07-12T08:03:07.420Z,22.91
2018-07-12T08:04:07.409Z,22.95
2018-07-12T08:05:07.395Z,22.97
2018-07-12T08:06:07.398Z,22.98
2018-07-12T08:07:07.376Z,22.97
2018-07-12T08:08:07.361Z,23.00
2018-07-12T08:09:07.351Z,22.94
2018-07-12T08:10:07.345Z,22.97
2018-07-12T08:11:07.347Z,22.98
2018-07-12T08:12:07.319Z,23.01
2018-07-12T08:13:07.307Z,23.02
2018-07-12T08:14:07.296Z,23.01
2018-07-12T08:15:07.288Z,23.02
2018-07-12T08:16:07.294Z,23.00
2018-07-12T08:17:07.266Z,23.00
2018-07-12T08:18:07.254Z,23.05
2018-07-12T08:19:07.242Z,22.98
2018-07-12T08:20:07.236Z,23.05
2018-07-12T08:21:07.249Z,23.05
2018-07-12T08:22:07.211Z,23.00
2018-07-12T08:23:07.200Z,23.02
2018-07-12T08:24:07.189Z,23.15
2018-07-12T08:25:07.178Z,23.05
2018-07-12T08:26:07.169Z,23.10
2018-07-12T08:27:07.173Z,23.05
2018-07-12T08:28:07.148Z,23.09
2018-07-12T08:29:07.246Z,23.04
2018-07-12T08:30:07.159Z,23.10
2018-07-12T08:31:07.188Z,23.07
2018-07-12T08:32:07.119Z,23.07
2018-07-12T08:33:07.091Z,23.07
2018-07-12T08:34:07.081Z,23.10
2018-07-12T08:35:07.068Z,23.04
2018-07-12T08:36:07.111Z,23.09
2018-07-12T08:37:07.063Z,23.09
2018-07-12T08:38:07.037Z,23.09
2018-07-12T08:39:07.025Z,23.04
2018-07-12T08:40:07.015Z,23.17
2018-07-12T08:41:07.004Z,23.10
2018-07-12T08:42:07.008Z,23.13
2018-07-12T08:43:06.982Z,23.17
2018-07-12T08:44:06.971Z,23.12
2018-07-12T08:45:06.962Z,23.13
2018-07-12T08:46:06.974Z,23.12
2018-07-12T08:47:06.953Z,23.16
2018-07-12T08:48:06.977Z,23.22
2018-07-12T08:49:06.917Z,23.16
2018-07-12T08:50:06.907Z,23.22
2018-07-12T08:51:06.895Z,23.17
2018-07-12T08:52:06.900Z,23.19
2018-07-12T08:53:06.911Z,23.19
2018-07-12T08:54:06.865Z,23.23
2018-07-12T08:55:06.853Z,23.17
2018-07-12T08:56:06.841Z,23.31
2018-07-12T08:57:06.844Z,23.27
2018-07-12T08:58:06.820Z,23.27
2018-07-12T08:59:06.811Z,23.19
2018-07-12T09:00:06.798Z,23.31
2018-07-12T09:01:06.787Z,23.32
2018-07-12T09:02:06.790Z,23.27
2018-07-12T09:03:06.865Z,23.23
2018-07-12T09:04:06.759Z,23.32
2018-07-12T09:05:06.744Z,23.27
2018-07-12T09:06:06.733Z,23.33
2018-07-12T09:07:06.739Z,23.31
2018-07-12T09:08:06.711Z,23.27
2018-07-12T09:09:06.700Z,23.35
2018-07-12T09:10:06.690Z,23.33
2018-07-12T09:11:06.680Z,23.31
2018-07-12T09:12:06.688Z,23.36
2018-07-12T09:13:06.657Z,23.42
2018-07-12T09:14:06.646Z,23.38
2018-07-12T09:15:06.635Z,23.40
2018-07-12T09:16:06.624Z,23.39
2018-07-12T09:17:06.632Z,23.38
2018-07-12T09:18:06.603Z,23.47
2018-07-12T09:19:06.592Z,23.40
2018-07-12T09:20:06.583Z,23.43
2018-07-12T09:21:06.571Z,23.50
2018-07-12T09:22:06.587Z,23.43
2018-07-12T09:23:06.549Z,23.46
2018-07-12T09:24:06.537Z,23.51
2018-07-12T09:25:06.530Z,23.60
2018-07-12T09:26:06.515Z,23.53
2018-07-12T09:27:06.505Z,23.60
2018-07-12T09:28:06.509Z,23.65
2018-07-12T09:29:06.488Z,23.63
2018-07-12T09:30:06.474Z,23.57
2018-07-12T09:31:06.463Z,23.60
2018-07-12T09:32:06.452Z,23.60
2018-07-12T09:33:06.458Z,23.65
2018-07-12T09:34:06.428Z,23.61
2018-07-12T09:35:06.419Z,23.69
2018-07-12T09:36:06.408Z,23.72
2018-07-12T09:37:06.473Z,23.75
2018-07-12T09:38:06.400Z,23.69
2018-07-12T09:39:06.378Z,23.73
2018-07-12T09:40:06.366Z,23.75
2018-07-12T09:41:06.356Z,23.84
2018-07-12T09:42:06.344Z,23.88
2018-07-12T09:43:06.350Z,23.88
2018-07-12T09:44:06.323Z,23.79
2018-07-12T09:45:06.312Z,23.87
2018-07-12T09:46:06.301Z,23.85
2018-07-12T09:47:06.298Z,23.95
2018-07-12T09:48:06.295Z,23.94
2018-07-12T09:49:06.390Z,23.93
2018-07-12T09:50:06.295Z,23.98
2018-07-12T09:51:06.249Z,23.94
2018-07-12T09:52:06.238Z,23.97
2018-07-12T09:53:06.244Z,24.06
2018-07-12T09:54:06.217Z,24.03
2018-07-12T09:55:06.208Z,24.08
2018-07-12T09:56:06.370Z,24.02
2018-07-12T09:57:06.198Z,24.13
2018-07-12T09:58:06.209Z,24.09
2018-07-12T09:59:06.195Z,24.13
2018-07-12T10:00:06.156Z,24.15
2018-07-12T10:01:06.176Z,24.15
2018-07-12T10:02:06.132Z,24.16
2018-07-12T10:03:06.140Z,24.18
2018-07-12T10:04:06.112Z,24.16
2018-07-12T10:05:06.102Z,24.18
2018-07-12T10:06:06.091Z,24.20
2018-07-12T10:07:06.080Z,24.24
2018-07-12T10:08:06.084Z,24.28
2018-07-12T10:09:06.061Z,24.32
2018-07-12T10:10:06.048Z,24.28
2018-07-12T10:11:06.039Z,24.37
2018-07-12T10:12:06.029Z,24.35
2018-07-12T10:13:06.031Z,24.39
2018-07-12T10:14:06.007Z,24.43
2018-07-12T10:15:05.996Z,24.40
2018-07-12T10:16:05.985Z,24.47
2018-07-12T10:17:05.975Z,24.49
2018-07-12T10:18:05.977Z,24.55
2018-07-12T10:19:05.956Z,24.53
2018-07-12T10:20:05.944Z,24.61
2018-07-12T10:21:05.933Z,24.65
2018-07-12T10:22:05.922Z,24.67
2018-07-12T10:23:05.924Z,24.64
2018-07-12T10:24:05.898Z,24.73
2018-07-12T10:25:05.889Z,24.71
2018-07-12T10:26:05.878Z,24.67
2018-07-12T10:27:05.867Z,24.69
2018-07-12T10:28:05.869Z,24.68
2018-07-12T10:29:05.845Z,24.71
2018-07-12T10:30:05.834Z,24.81
2018-07-12T10:31:05.823Z,24.81
2018-07-12T10:32:05.813Z,24.95
2018-07-12T10:33:05.816Z,24.93
2018-07-12T10:34:05.794Z,24.99
2018-07-12T10:35:05.782Z,25.10
2018-07-12T10:36:05.771Z,25.21
2018-07-12T10:37:05.761Z,25.21
2018-07-12T10:38:05.764Z,25.21
2018-07-12T10:39:05.739Z,25.32
2018-07-12T10:40:05.729Z,25.45
2018-07-12T10:41:05.719Z,25.57
2018-07-12T10:42:05.708Z,25.61
2018-07-12T10:43:05.697Z,25.62
2018-07-12T10:44:05.699Z,25.76
2018-07-12T10:45:05.676Z,25.79
2018-07-12T10:46:05.664Z,25.97
2018-07-12T10:47:05.654Z,26.02
2018-07-12T10:48:05.644Z,26.10
2018-07-12T10:49:05.648Z,26.23
2018-07-12T10:50:05.625Z,26.28
2018-07-12T10:51:05.613Z,26.39
2018-07-12T10:52:05.601Z,26.48
2018-07-12T10:53:05.593Z,26.66
2018-07-12T10:54:05.595Z,26.69
2018-07-12T10:55:05.573Z,26.85
2018-07-12T10:56:05.560Z,27.02
2018-07-12T10:57:05.549Z,27.09
2018-07-12T10:58:05.540Z,27.13
2018-07-12T10:59:05.543Z,27.25
2018-07-12T11:00:05.519Z,27.32
2018-07-12T11:01:05.509Z,27.43
2018-07-12T11:02:05.499Z,27.43
2018-07-12T11:03:05.488Z,27.47
2018-07-12T11:04:05.493Z,27.59
2018-07-12T11:05:05.468Z,27.70
2018-07-12T11:06:05.456Z,27.70
2018-07-12T11:07:05.447Z,27.74
2018-07-12T11:08:05.435Z,27.77
2018-07-12T11:09:05.457Z,27.81
2018-07-12T11:10:05.416Z,27.75
2018-07-12T11:11:05.404Z,27.75
2018-07-12T11:12:05.395Z,27.75
2018-07-12T11:13:05.383Z,27.70
2018-07-12T11:14:05.390Z,27.60
2018-07-12T11:15:05.363Z,27.65
2018-07-12T11:16:05.355Z,27.60
2018-07-12T11:17:05.343Z,27.60
2018-07-12T11:18:05.333Z,27.55
2018-07-12T11:19:05.337Z,27.49
2018-07-12T11:20:05.313Z,27.39
2018-07-12T11:21:05.313Z,27.37
2018-07-12T11:22:05.296Z,27.37
2018-07-12T11:23:05.284Z,27.31
2018-07-12T11:24:05.307Z,27.22
2018-07-12T11:25:05.275Z,27.25
2018-07-12T11:26:05.254Z,27.18
2018-07-12T11:27:05.242Z,27.25
2018-07-12T11:28:05.270Z,27.22
2018-07-12T11:29:05.221Z,27.09
2018-07-12T11:30:05.224Z,27.09
2018-07-12T11:31:05.201Z,27.02
2018-07-12T11:32:05.190Z,27.06
2018-07-12T11:33:05.179Z,27.06
2018-07-12T11:34:05.171Z,27.04
2018-07-12T11:35:05.173Z,27.00
2018-07-12T11:36:05.150Z,27.00
2018-07-12T11:37:05.180Z,27.03
2018-07-12T11:38:05.128Z,27.06
2018-07-12T11:39:05.117Z,26.97
2018-07-12T11:40:05.121Z,27.03
2018-07-12T11:41:05.098Z,27.00
2018-07-12T11:42:05.088Z,27.04
2018-07-12T11:43:05.077Z,27.00
2018-07-12T11:44:05.067Z,26.97
2018-07-12T11:45:05.070Z,27.02
2018-07-12T11:46:05.046Z,27.03
2018-07-12T11:47:05.038Z,27.02
2018-07-12T11:48:05.024Z,27.00
2018-07-12T11:49:05.015Z,27.04
2018-07-12T11:50:05.016Z,27.02
2018-07-12T11:51:04.993Z,26.99
2018-07-12T11:52:04.983Z,26.99
2018-07-12T11:53:04.973Z,27.00
2018-07-12T11:54:04.962Z,26.95
2018-07-12T11:55:04.971Z,26.97
2018-07-12T11:56:04.941Z,26.95
2018-07-12T11:57:04.930Z,26.95
2018-07-12T11:58:04.923Z,26.97
2018-07-12T11:59:04.910Z,27.02
2018-07-12T12:00:04.913Z,26.92
2018-07-12T12:01:04.889Z,27.00
2018-07-12T12:02:04.904Z,26.92
2018-07-12T12:03:04.868Z,26.92
2018-07-12T12:04:04.861Z,26.87
2018-07-12T12:05:04.861Z,26.99
2018-07-12T12:06:04.839Z,26.94
2018-07-12T12:07:04.826Z,26.95
2018-07-12T12:08:04.816Z,26.92
2018-07-12T12:09:04.804Z,27.00
2018-07-12T12:10:04.808Z,26.85
2018-07-12T12:11:04.783Z,26.89
2018-07-12T12:12:04.773Z,26.91
2018-07-12T12:13:04.764Z,26.89
2018-07-12T12:14:04.753Z,26.89
2018-07-12T12:15:04.756Z,26.88
2018-07-12T12:16:04.729Z,26.87
2018-07-12T12:17:04.719Z,26.87
2018-07-12T12:18:04.712Z,26.89
2018-07-12T12:19:04.699Z,26.94
2018-07-12T12:20:04.704Z,26.87
2018-07-12T12:21:04.678Z,26.87
2018-07-12T12:22:04.668Z,26.85
2018-07-12T12:23:04.658Z,26.87
2018-07-12T12:24:04.647Z,26.89
2018-07-12T12:25:04.652Z,26.88
2018-07-12T12:26:04.626Z,26.88
2018-07-12T12:27:04.622Z,26.82
2018-07-12T12:28:04.609Z,26.81
2018-07-12T12:29:04.596Z,26.82
2018-07-12T12:30:04.609Z,26.88
2018-07-12T12:31:04.574Z,26.87
2018-07-12T12:32:04.566Z,26.77
2018-07-12T12:33:04.556Z,26.84
2018-07-12T12:34:04.545Z,26.81
2018-07-12T12:35:04.534Z,26.89
2018-07-12T12:36:04.537Z,26.84
2018-07-12T12:37:04.514Z,26.84
2018-07-12T12:38:04.503Z,26.84
2018-07-12T12:39:04.497Z,26.84
2018-07-12T12:40:04.482Z,26.87
2018-07-12T12:41:04.488Z,26.82
2018-07-12T12:42:04.461Z,26.85
2018-07-12T12:43:04.451Z,26.85
2018-07-12T12:44:04.440Z,26.84
2018-07-12T12:45:04.432Z,26.87
2018-07-12T12:46:04.434Z,26.77
2018-07-12T12:47:04.412Z,26.88
2018-07-12T12:48:04.400Z,26.77
2018-07-12T12:49:04.391Z,26.81
2018-07-12T12:50:04.378Z,26.84
2018-07-12T12:51:04.382Z,26.87
2018-07-12T12:52:04.367Z,26.76